sensor_id;sensor_type;location;lat;lon;timestamp;temperature;humidity
5150;DHT22;2593;52.466;13.436;2022-09-21T00:01:08;9.40;99.90
5150;DHT22;2593;52.466;13.436;2022-09-21T00:03:35;9.40;99.90
5150;DHT22;2593;52.466;13.436;2022-09-21T00:06:04;9.40;99.90
5150;DHT22;2593;52.466;13.436;2022-09-21T00:08:30;9.40;99.90
5150;DHT22;2593;52.466;13.436;2022-09-21T00:10:56;9.40;99.90
5150;DHT22;2593;52.466;13.436;2022-09-21T00:13:21;9.40;99.90
5150;DHT22;2593;52.466;13.436;2022-09-21T00:15:48;9.40;99.90
5150;DHT22;2593;52.466;13.436;2022-09-21T00:18:13;9.50;99.90
5150;DHT22;2593;52.466;13.436;2022-09-21T00:20:40;9.40;99.90
5150;DHT22;2593;52.466;13.436;2022-09-21T00:23:08;9.40;99.90
5150;DHT22;2593;52.466;13.436;2022-09-21T00:25:34;9.40;99.90
5150;DHT22;2593;52.466;13.436;2022-09-21T00:28:00;9.40;99.90
5150;DHT22;2593;52.466;13.436;2022-09-21T00:30:26;9.40;99.90
5150;DHT22;2593;52.466;13.436;2022-09-21T00:32:52;9.40;99.90
5150;DHT22;2593;52.466;13.436;2022-09-21T00:35:17;9.40;99.90
5150;DHT22;2593;52.466;13.436;2022-09-21T00:37:43;9.40;99.90
5150;DHT22;2593;52.466;13.436;2022-09-21T00:40:09;9.40;99.90
5150;DHT22;2593;52.466;13.436;2022-09-21T00:42:35;9.30;99.90
5150;DHT22;2593;52.466;13.436;2022-09-21T00:45:02;9.30;99.90
5150;DHT22;2593;52.466;13.436;2022-09-21T00:47:35;9.30;99.90
5150;DHT22;2593;52.466;13.436;2022-09-21T00:50:07;9.30;99.90
5150;DHT22;2593;52.466;13.436;2022-09-21T00:52:39;9.30;99.90
5150;DHT22;2593;52.466;13.436;2022-09-21T00:55:18;9.30;99.90
5150;DHT22;2593;52.466;13.436;2022-09-21T00:57:48;9.30;99.90
5150;DHT22;2593;52.466;13.436;2022-09-21T01:00:15;9.20;99.90
5150;DHT22;2593;52.466;13.436;2022-09-21T01:02:41;9.30;99.90
5150;DHT22;2593;52.466;13.436;2022-09-21T01:05:08;9.20;99.90
5150;DHT22;2593;52.466;13.436;2022-09-21T01:07:37;9.20;99.90
5150;DHT22;2593;52.466;13.436;2022-09-21T01:10:12;9.20;99.90
5150;DHT22;2593;52.466;13.436;2022-09-21T01:13:00;9.30;99.90
5150;DHT22;2593;52.466;13.436;2022-09-21T01:31:59;9.30;99.90
5150;DHT22;2593;52.466;13.436;2022-09-21T01:37:21;9.30;99.90
5150;DHT22;2593;52.466;13.436;2022-09-21T01:39:53;9.30;99.90
5150;DHT22;2593;52.466;13.436;2022-09-21T01:42:20;9.20;99.90
5150;DHT22;2593;52.466;13.436;2022-09-21T01:44:48;9.20;99.90
5150;DHT22;2593;52.466;13.436;2022-09-21T01:47:16;9.20;99.90
5150;DHT22;2593;52.466;13.436;2022-09-21T01:49:46;9.20;99.90
5150;DHT22;2593;52.466;13.436;2022-09-21T01:52:22;9.20;99.90
5150;DHT22;2593;52.466;13.436;2022-09-21T01:54:53;9.20;99.90
5150;DHT22;2593;52.466;13.436;2022-09-21T02:00:05;9.10;99.90
5150;DHT22;2593;52.466;13.436;2022-09-21T02:02:50;9.20;99.90
5150;DHT22;2593;52.466;13.436;2022-09-21T02:05:18;9.10;99.90
5150;DHT22;2593;52.466;13.436;2022-09-21T02:07:46;9.20;99.90
5150;DHT22;2593;52.466;13.436;2022-09-21T02:10:21;9.20;99.90
5150;DHT22;2593;52.466;13.436;2022-09-21T02:12:48;9.10;99.90
5150;DHT22;2593;52.466;13.436;2022-09-21T02:15:21;9.10;99.90
5150;DHT22;2593;52.466;13.436;2022-09-21T02:18:01;9.10;99.90
5150;DHT22;2593;52.466;13.436;2022-09-21T02:20:34;9.10;99.90
5150;DHT22;2593;52.466;13.436;2022-09-21T02:25:51;9.10;99.90
5150;DHT22;2593;52.466;13.436;2022-09-21T02:28:28;9.10;99.90
5150;DHT22;2593;52.466;13.436;2022-09-21T02:31:15;9.00;99.90
5150;DHT22;2593;52.466;13.436;2022-09-21T02:33:55;9.10;99.90
5150;DHT22;2593;52.466;13.436;2022-09-21T02:36:33;9.10;99.90
5150;DHT22;2593;52.466;13.436;2022-09-21T02:39:17;9.10;99.90
5150;DHT22;2593;52.466;13.436;2022-09-21T02:42:00;9.10;99.90
5150;DHT22;2593;52.466;13.436;2022-09-21T02:44:37;9.10;99.90
5150;DHT22;2593;52.466;13.436;2022-09-21T02:50:00;9.00;99.90
5150;DHT22;2593;52.466;13.436;2022-09-21T02:52:29;8.90;99.90
5150;DHT22;2593;52.466;13.436;2022-09-21T02:54:56;8.90;99.90
5150;DHT22;2593;52.466;13.436;2022-09-21T02:57:23;8.80;99.90
5150;DHT22;2593;52.466;13.436;2022-09-21T02:59:50;8.80;99.90
5150;DHT22;2593;52.466;13.436;2022-09-21T03:02:16;8.80;99.90
5150;DHT22;2593;52.466;13.436;2022-09-21T03:04:43;8.80;99.90
5150;DHT22;2593;52.466;13.436;2022-09-21T03:07:15;8.80;99.90
5150;DHT22;2593;52.466;13.436;2022-09-21T03:09:41;8.80;99.90
5150;DHT22;2593;52.466;13.436;2022-09-21T03:12:07;8.80;99.90
5150;DHT22;2593;52.466;13.436;2022-09-21T03:14:32;8.80;99.90
5150;DHT22;2593;52.466;13.436;2022-09-21T03:16:59;8.80;99.90
5150;DHT22;2593;52.466;13.436;2022-09-21T03:19:25;8.80;99.90
5150;DHT22;2593;52.466;13.436;2022-09-21T03:21:51;8.80;99.90
5150;DHT22;2593;52.466;13.436;2022-09-21T03:24:17;8.80;99.90
5150;DHT22;2593;52.466;13.436;2022-09-21T03:27:03;8.80;99.90
5150;DHT22;2593;52.466;13.436;2022-09-21T03:29:29;8.80;99.90
5150;DHT22;2593;52.466;13.436;2022-09-21T03:31:54;8.80;99.90
5150;DHT22;2593;52.466;13.436;2022-09-21T03:34:20;8.80;99.90
5150;DHT22;2593;52.466;13.436;2022-09-21T03:36:46;8.70;99.90
5150;DHT22;2593;52.466;13.436;2022-09-21T03:39:13;8.70;99.90
5150;DHT22;2593;52.466;13.436;2022-09-21T03:41:38;8.70;99.90
5150;DHT22;2593;52.466;13.436;2022-09-21T03:44:04;8.70;99.90
5150;DHT22;2593;52.466;13.436;2022-09-21T03:46:29;8.70;99.90
5150;DHT22;2593;52.466;13.436;2022-09-21T03:48:55;8.70;99.90
5150;DHT22;2593;52.466;13.436;2022-09-21T03:51:20;8.70;99.90
5150;DHT22;2593;52.466;13.436;2022-09-21T03:53:46;8.70;99.90
5150;DHT22;2593;52.466;13.436;2022-09-21T03:56:12;8.70;99.90
5150;DHT22;2593;52.466;13.436;2022-09-21T03:58:37;8.70;99.90
5150;DHT22;2593;52.466;13.436;2022-09-21T04:01:03;8.70;99.90
5150;DHT22;2593;52.466;13.436;2022-09-21T04:03:29;8.70;99.90
5150;DHT22;2593;52.466;13.436;2022-09-21T04:05:55;8.70;99.90
5150;DHT22;2593;52.466;13.436;2022-09-21T04:08:20;8.70;99.90
5150;DHT22;2593;52.466;13.436;2022-09-21T04:10:46;8.70;99.90
5150;DHT22;2593;52.466;13.436;2022-09-21T04:13:11;8.60;99.90
5150;DHT22;2593;52.466;13.436;2022-09-21T04:15:38;8.50;99.90
5150;DHT22;2593;52.466;13.436;2022-09-21T04:18:03;8.60;99.90
5150;DHT22;2593;52.466;13.436;2022-09-21T04:20:30;8.60;99.90
5150;DHT22;2593;52.466;13.436;2022-09-21T04:22:56;8.60;99.90
5150;DHT22;2593;52.466;13.436;2022-09-21T04:25:22;8.60;99.90
5150;DHT22;2593;52.466;13.436;2022-09-21T04:27:48;8.60;99.90
5150;DHT22;2593;52.466;13.436;2022-09-21T04:30:14;8.60;99.90
5150;DHT22;2593;52.466;13.436;2022-09-21T04:32:40;8.60;99.90
5150;DHT22;2593;52.466;13.436;2022-09-21T04:35:06;8.60;99.90
5150;DHT22;2593;52.466;13.436;2022-09-21T04:37:32;8.60;99.90
5150;DHT22;2593;52.466;13.436;2022-09-21T04:39:57;8.60;99.90
5150;DHT22;2593;52.466;13.436;2022-09-21T04:42:23;8.60;99.90
5150;DHT22;2593;52.466;13.436;2022-09-21T04:44:49;8.60;99.90
5150;DHT22;2593;52.466;13.436;2022-09-21T04:47:15;8.60;99.90
5150;DHT22;2593;52.466;13.436;2022-09-21T04:49:41;8.60;99.90
5150;DHT22;2593;52.466;13.436;2022-09-21T04:52:06;8.60;99.90
5150;DHT22;2593;52.466;13.436;2022-09-21T04:54:32;8.60;99.90
5150;DHT22;2593;52.466;13.436;2022-09-21T04:56:57;8.60;99.90
5150;DHT22;2593;52.466;13.436;2022-09-21T04:59:23;8.60;99.90
5150;DHT22;2593;52.466;13.436;2022-09-21T05:01:49;8.50;99.90
5150;DHT22;2593;52.466;13.436;2022-09-21T05:04:14;8.50;99.90
5150;DHT22;2593;52.466;13.436;2022-09-21T05:06:40;8.50;99.90
5150;DHT22;2593;52.466;13.436;2022-09-21T05:09:06;8.60;99.90
5150;DHT22;2593;52.466;13.436;2022-09-21T05:11:50;8.50;99.90
5150;DHT22;2593;52.466;13.436;2022-09-21T05:14:17;8.50;99.90
5150;DHT22;2593;52.466;13.436;2022-09-21T05:16:42;8.60;99.90
5150;DHT22;2593;52.466;13.436;2022-09-21T05:19:08;8.60;99.90
5150;DHT22;2593;52.466;13.436;2022-09-21T05:21:33;8.60;99.90
5150;DHT22;2593;52.466;13.436;2022-09-21T05:24:00;8.60;99.90
5150;DHT22;2593;52.466;13.436;2022-09-21T05:26:26;8.60;99.90
5150;DHT22;2593;52.466;13.436;2022-09-21T05:28:52;8.60;99.90
5150;DHT22;2593;52.466;13.436;2022-09-21T05:33:56;8.60;99.90
5150;DHT22;2593;52.466;13.436;2022-09-21T05:38:52;8.70;99.90
5150;DHT22;2593;52.466;13.436;2022-09-21T05:41:17;8.70;99.90
5150;DHT22;2593;52.466;13.436;2022-09-21T05:43:43;8.80;99.90
5150;DHT22;2593;52.466;13.436;2022-09-21T05:46:19;8.80;99.90
5150;DHT22;2593;52.466;13.436;2022-09-21T05:48:59;8.80;99.90
5150;DHT22;2593;52.466;13.436;2022-09-21T06:00:17;8.90;99.90
5150;DHT22;2593;52.466;13.436;2022-09-21T06:05:15;9.10;99.90
5150;DHT22;2593;52.466;13.436;2022-09-21T06:07:42;9.10;99.90
5150;DHT22;2593;52.466;13.436;2022-09-21T06:10:09;9.20;99.90
5150;DHT22;2593;52.466;13.436;2022-09-21T06:12:36;9.30;99.90
5150;DHT22;2593;52.466;13.436;2022-09-21T06:15:02;9.40;99.90
5150;DHT22;2593;52.466;13.436;2022-09-21T06:17:28;9.50;99.90
5150;DHT22;2593;52.466;13.436;2022-09-21T06:19:53;9.60;99.90
5150;DHT22;2593;52.466;13.436;2022-09-21T06:22:19;9.70;99.90
5150;DHT22;2593;52.466;13.436;2022-09-21T06:24:45;9.90;99.90
5150;DHT22;2593;52.466;13.436;2022-09-21T06:27:10;10.00;99.90
5150;DHT22;2593;52.466;13.436;2022-09-21T06:29:36;10.10;99.90
5150;DHT22;2593;52.466;13.436;2022-09-21T06:32:03;10.10;99.90
5150;DHT22;2593;52.466;13.436;2022-09-21T06:34:28;10.20;99.90
5150;DHT22;2593;52.466;13.436;2022-09-21T06:36:55;10.30;99.90
5150;DHT22;2593;52.466;13.436;2022-09-21T06:39:21;10.40;99.90
5150;DHT22;2593;52.466;13.436;2022-09-21T06:41:47;10.50;99.90
5150;DHT22;2593;52.466;13.436;2022-09-21T06:44:12;10.60;99.90
5150;DHT22;2593;52.466;13.436;2022-09-21T06:46:38;10.70;99.90
5150;DHT22;2593;52.466;13.436;2022-09-21T06:49:04;10.70;99.90
5150;DHT22;2593;52.466;13.436;2022-09-21T06:51:29;10.80;99.90
5150;DHT22;2593;52.466;13.436;2022-09-21T06:53:56;10.90;60.50
5150;DHT22;2593;52.466;13.436;2022-09-21T06:56:23;11.00;13.60
5150;DHT22;2593;52.466;13.436;2022-09-21T06:58:49;11.10;1.00
5150;DHT22;2593;52.466;13.436;2022-09-21T07:01:15;11.20;1.00
5150;DHT22;2593;52.466;13.436;2022-09-21T07:03:42;11.30;1.00
5150;DHT22;2593;52.466;13.436;2022-09-21T07:06:09;11.30;1.00
5150;DHT22;2593;52.466;13.436;2022-09-21T07:08:36;11.40;1.00
5150;DHT22;2593;52.466;13.436;2022-09-21T07:11:02;11.40;1.00
5150;DHT22;2593;52.466;13.436;2022-09-21T07:13:28;11.60;1.00
5150;DHT22;2593;52.466;13.436;2022-09-21T07:15:54;11.70;99.90
5150;DHT22;2593;52.466;13.436;2022-09-21T07:18:20;11.90;99.90
5150;DHT22;2593;52.466;13.436;2022-09-21T07:20:46;12.00;99.90
5150;DHT22;2593;52.466;13.436;2022-09-21T07:23:17;12.10;11.50
5150;DHT22;2593;52.466;13.436;2022-09-21T07:25:44;12.30;1.00
5150;DHT22;2593;52.466;13.436;2022-09-21T07:28:11;12.40;99.90
5150;DHT22;2593;52.466;13.436;2022-09-21T07:30:38;12.40;99.90
5150;DHT22;2593;52.466;13.436;2022-09-21T07:33:04;12.50;1.00
5150;DHT22;2593;52.466;13.436;2022-09-21T07:35:30;12.60;1.00
5150;DHT22;2593;52.466;13.436;2022-09-21T07:38:04;12.80;99.90
5150;DHT22;2593;52.466;13.436;2022-09-21T07:40:30;13.00;1.00
5150;DHT22;2593;52.466;13.436;2022-09-21T07:43:00;13.20;1.00
5150;DHT22;2593;52.466;13.436;2022-09-21T07:45:29;13.30;99.90
5150;DHT22;2593;52.466;13.436;2022-09-21T07:48:01;13.40;99.90
5150;DHT22;2593;52.466;13.436;2022-09-21T07:50:26;13.40;24.20
5150;DHT22;2593;52.466;13.436;2022-09-21T07:52:52;13.60;1.00
5150;DHT22;2593;52.466;13.436;2022-09-21T07:55:17;13.80;1.00
5150;DHT22;2593;52.466;13.436;2022-09-21T07:57:43;14.10;99.90
5150;DHT22;2593;52.466;13.436;2022-09-21T08:00:27;14.30;99.90
5150;DHT22;2593;52.466;13.436;2022-09-21T08:02:57;14.50;1.00
5150;DHT22;2593;52.466;13.436;2022-09-21T08:05:22;14.60;1.00
5150;DHT22;2593;52.466;13.436;2022-09-21T08:07:48;14.60;1.00
5150;DHT22;2593;52.466;13.436;2022-09-21T08:10:14;14.50;99.90
5150;DHT22;2593;52.466;13.436;2022-09-21T08:12:40;14.50;99.90
5150;DHT22;2593;52.466;13.436;2022-09-21T08:15:06;14.60;99.90
5150;DHT22;2593;52.466;13.436;2022-09-21T08:17:32;14.60;99.90
5150;DHT22;2593;52.466;13.436;2022-09-21T08:19:57;14.60;99.90
5150;DHT22;2593;52.466;13.436;2022-09-21T08:22:23;14.60;99.90
5150;DHT22;2593;52.466;13.436;2022-09-21T08:24:50;14.60;99.90
5150;DHT22;2593;52.466;13.436;2022-09-21T08:27:17;14.60;99.90
5150;DHT22;2593;52.466;13.436;2022-09-21T08:29:44;14.70;99.90
5150;DHT22;2593;52.466;13.436;2022-09-21T08:32:10;14.80;99.90
5150;DHT22;2593;52.466;13.436;2022-09-21T08:34:36;14.90;99.90
5150;DHT22;2593;52.466;13.436;2022-09-21T08:37:02;14.90;99.90
5150;DHT22;2593;52.466;13.436;2022-09-21T08:39:28;15.00;99.90
5150;DHT22;2593;52.466;13.436;2022-09-21T08:41:58;15.00;99.90
5150;DHT22;2593;52.466;13.436;2022-09-21T08:47:13;14.90;99.90
5150;DHT22;2593;52.466;13.436;2022-09-21T08:49:41;15.00;99.90
5150;DHT22;2593;52.466;13.436;2022-09-21T08:52:12;15.10;99.90
5150;DHT22;2593;52.466;13.436;2022-09-21T08:57:27;15.40;99.90
5150;DHT22;2593;52.466;13.436;2022-09-21T08:59:53;15.50;99.90
5150;DHT22;2593;52.466;13.436;2022-09-21T09:15:43;17.30;21.70
5150;DHT22;2593;52.466;13.436;2022-09-21T09:20:54;17.70;1.00
5150;DHT22;2593;52.466;13.436;2022-09-21T09:23:24;18.00;1.00
5150;DHT22;2593;52.466;13.436;2022-09-21T09:25:53;18.60;1.00
5150;DHT22;2593;52.466;13.436;2022-09-21T09:34:19;21.80;1.00
5150;DHT22;2593;52.466;13.436;2022-09-21T09:36:51;23.20;1.00
5150;DHT22;2593;52.466;13.436;2022-09-21T09:39:18;23.40;1.00
5150;DHT22;2593;52.466;13.436;2022-09-21T09:50:36;23.00;1.00
5150;DHT22;2593;52.466;13.436;2022-09-21T09:55:40;23.60;1.00
5150;DHT22;2593;52.466;13.436;2022-09-21T09:58:19;23.90;1.00
5150;DHT22;2593;52.466;13.436;2022-09-21T10:00:49;24.50;1.00
5150;DHT22;2593;52.466;13.436;2022-09-21T10:03:19;25.40;1.00
5150;DHT22;2593;52.466;13.436;2022-09-21T10:05:46;26.70;1.00
5150;DHT22;2593;52.466;13.436;2022-09-21T10:08:42;27.40;1.00
5150;DHT22;2593;52.466;13.436;2022-09-21T10:11:14;29.00;1.00
5150;DHT22;2593;52.466;13.436;2022-09-21T10:13:42;30.30;1.00
5150;DHT22;2593;52.466;13.436;2022-09-21T10:16:20;30.80;1.00
5150;DHT22;2593;52.466;13.436;2022-09-21T10:18:47;31.50;1.00
5150;DHT22;2593;52.466;13.436;2022-09-21T10:24:03;31.80;1.00
5150;DHT22;2593;52.466;13.436;2022-09-21T10:27:11;31.70;1.00
5150;DHT22;2593;52.466;13.436;2022-09-21T10:29:47;30.00;1.00
5150;DHT22;2593;52.466;13.436;2022-09-21T10:34:39;25.30;1.00
5150;DHT22;2593;52.466;13.436;2022-09-21T10:39:50;23.00;1.00
5150;DHT22;2593;52.466;13.436;2022-09-21T10:42:17;21.90;1.00
5150;DHT22;2593;52.466;13.436;2022-09-21T10:44:45;21.20;1.00
5150;DHT22;2593;52.466;13.436;2022-09-21T10:47:22;20.20;1.00
5150;DHT22;2593;52.466;13.436;2022-09-21T10:49:52;19.70;1.00
5150;DHT22;2593;52.466;13.436;2022-09-21T10:52:23;19.30;1.00
5150;DHT22;2593;52.466;13.436;2022-09-21T10:54:51;19.20;1.00
5150;DHT22;2593;52.466;13.436;2022-09-21T10:57:21;19.10;1.00
5150;DHT22;2593;52.466;13.436;2022-09-21T10:59:47;19.10;1.00
5150;DHT22;2593;52.466;13.436;2022-09-21T11:02:34;18.90;1.00
5150;DHT22;2593;52.466;13.436;2022-09-21T11:07:44;18.60;1.00
5150;DHT22;2593;52.466;13.436;2022-09-21T11:10:23;18.50;1.00
5150;DHT22;2593;52.466;13.436;2022-09-21T11:15:48;18.40;1.00
5150;DHT22;2593;52.466;13.436;2022-09-21T11:24:27;18.50;1.00
5150;DHT22;2593;52.466;13.436;2022-09-21T11:27:48;18.30;1.00
5150;DHT22;2593;52.466;13.436;2022-09-21T11:33:09;18.40;1.00
5150;DHT22;2593;52.466;13.436;2022-09-21T11:41:11;18.60;1.00
5150;DHT22;2593;52.466;13.436;2022-09-21T11:46:52;18.50;1.00
5150;DHT22;2593;52.466;13.436;2022-09-21T11:52:34;18.50;1.00
5150;DHT22;2593;52.466;13.436;2022-09-21T11:57:55;18.20;1.00
5150;DHT22;2593;52.466;13.436;2022-09-21T12:00:25;18.00;1.00
5150;DHT22;2593;52.466;13.436;2022-09-21T12:06:33;18.00;1.00
5150;DHT22;2593;52.466;13.436;2022-09-21T12:09:23;18.00;1.00
5150;DHT22;2593;52.466;13.436;2022-09-21T12:12:04;18.00;1.00
5150;DHT22;2593;52.466;13.436;2022-09-21T12:14:50;17.90;1.00
5150;DHT22;2593;52.466;13.436;2022-09-21T12:22:43;17.50;1.00
5150;DHT22;2593;52.466;13.436;2022-09-21T12:25:14;17.50;1.00
5150;DHT22;2593;52.466;13.436;2022-09-21T12:28:06;17.40;1.00
5150;DHT22;2593;52.466;13.436;2022-09-21T12:30:37;17.20;1.00
5150;DHT22;2593;52.466;13.436;2022-09-21T12:33:30;17.00;1.00
5150;DHT22;2593;52.466;13.436;2022-09-21T12:38:39;16.80;1.00
5150;DHT22;2593;52.466;13.436;2022-09-21T12:49:37;16.40;1.00
5150;DHT22;2593;52.466;13.436;2022-09-21T12:52:05;16.40;1.00
5150;DHT22;2593;52.466;13.436;2022-09-21T12:54:47;16.40;1.00
5150;DHT22;2593;52.466;13.436;2022-09-21T13:00:00;16.40;1.00
5150;DHT22;2593;52.466;13.436;2022-09-21T13:05:34;16.50;1.00
5150;DHT22;2593;52.466;13.436;2022-09-21T13:08:12;16.60;1.00
5150;DHT22;2593;52.466;13.436;2022-09-21T13:10:59;16.60;1.00
5150;DHT22;2593;52.466;13.436;2022-09-21T13:13:33;16.60;1.00
5150;DHT22;2593;52.466;13.436;2022-09-21T13:16:00;16.60;1.00
5150;DHT22;2593;52.466;13.436;2022-09-21T13:20:55;16.50;1.00
5150;DHT22;2593;52.466;13.436;2022-09-21T13:23:36;16.50;1.00
5150;DHT22;2593;52.466;13.436;2022-09-21T13:26:12;16.50;1.00
5150;DHT22;2593;52.466;13.436;2022-09-21T13:28:40;16.50;1.00
5150;DHT22;2593;52.466;13.436;2022-09-21T13:36:35;16.30;1.00
5150;DHT22;2593;52.466;13.436;2022-09-21T13:39:15;16.30;1.00
5150;DHT22;2593;52.466;13.436;2022-09-21T13:41:41;16.30;1.00
5150;DHT22;2593;52.466;13.436;2022-09-21T13:54:27;16.20;1.00
5150;DHT22;2593;52.466;13.436;2022-09-21T13:59:47;16.30;1.00
5150;DHT22;2593;52.466;13.436;2022-09-21T14:02:32;16.40;1.00
5150;DHT22;2593;52.466;13.436;2022-09-21T14:08:30;16.40;1.00
5150;DHT22;2593;52.466;13.436;2022-09-21T14:11:03;16.30;1.00
5150;DHT22;2593;52.466;13.436;2022-09-21T14:13:42;16.20;1.00
5150;DHT22;2593;52.466;13.436;2022-09-21T14:19:02;16.20;1.00
5150;DHT22;2593;52.466;13.436;2022-09-21T14:21:28;16.20;1.00
5150;DHT22;2593;52.466;13.436;2022-09-21T14:24:16;16.20;1.00
5150;DHT22;2593;52.466;13.436;2022-09-21T14:26:58;16.10;1.00
5150;DHT22;2593;52.466;13.436;2022-09-21T14:29:55;16.10;1.00
5150;DHT22;2593;52.466;13.436;2022-09-21T14:32:29;16.00;1.00
5150;DHT22;2593;52.466;13.436;2022-09-21T14:35:04;15.90;1.00
5150;DHT22;2593;52.466;13.436;2022-09-21T14:37:48;15.90;1.00
5150;DHT22;2593;52.466;13.436;2022-09-21T14:40:26;15.90;1.00
5150;DHT22;2593;52.466;13.436;2022-09-21T14:42:54;15.90;1.00
5150;DHT22;2593;52.466;13.436;2022-09-21T14:45:33;15.90;1.00
5150;DHT22;2593;52.466;13.436;2022-09-21T14:48:22;15.80;1.00
5150;DHT22;2593;52.466;13.436;2022-09-21T14:51:01;15.90;1.00
5150;DHT22;2593;52.466;13.436;2022-09-21T14:53:56;15.90;1.00
5150;DHT22;2593;52.466;13.436;2022-09-21T14:56:42;16.00;1.00
5150;DHT22;2593;52.466;13.436;2022-09-21T15:02:23;15.90;1.00
5150;DHT22;2593;52.466;13.436;2022-09-21T15:07:48;16.00;1.00
5150;DHT22;2593;52.466;13.436;2022-09-21T15:10:58;16.10;1.00
5150;DHT22;2593;52.466;13.436;2022-09-21T15:13:48;16.10;1.00
5150;DHT22;2593;52.466;13.436;2022-09-21T15:19:20;16.20;1.00
5150;DHT22;2593;52.466;13.436;2022-09-21T15:21:48;16.20;1.00
5150;DHT22;2593;52.466;13.436;2022-09-21T15:24:19;16.00;1.00
5150;DHT22;2593;52.466;13.436;2022-09-21T15:26:46;15.90;1.00
5150;DHT22;2593;52.466;13.436;2022-09-21T15:29:25;15.90;1.00
5150;DHT22;2593;52.466;13.436;2022-09-21T15:31:52;15.80;1.00
5150;DHT22;2593;52.466;13.436;2022-09-21T15:34:18;15.70;1.00
5150;DHT22;2593;52.466;13.436;2022-09-21T15:36:45;15.70;1.00
5150;DHT22;2593;52.466;13.436;2022-09-21T15:39:29;15.70;1.00
5150;DHT22;2593;52.466;13.436;2022-09-21T15:42:14;15.60;1.00
5150;DHT22;2593;52.466;13.436;2022-09-21T15:44:45;15.60;1.00
5150;DHT22;2593;52.466;13.436;2022-09-21T15:47:21;15.60;1.00
5150;DHT22;2593;52.466;13.436;2022-09-21T15:49:47;15.50;1.00
5150;DHT22;2593;52.466;13.436;2022-09-21T15:54:57;15.40;1.00
5150;DHT22;2593;52.466;13.436;2022-09-21T15:57:36;15.40;1.00
5150;DHT22;2593;52.466;13.436;2022-09-21T16:00:06;15.50;1.00
5150;DHT22;2593;52.466;13.436;2022-09-21T16:02:55;15.50;1.00
5150;DHT22;2593;52.466;13.436;2022-09-21T16:05:22;15.50;1.00
5150;DHT22;2593;52.466;13.436;2022-09-21T16:08:03;15.50;1.00
5150;DHT22;2593;52.466;13.436;2022-09-21T16:16:02;15.30;1.00
5150;DHT22;2593;52.466;13.436;2022-09-21T16:18:44;15.20;1.00
5150;DHT22;2593;52.466;13.436;2022-09-21T16:21:22;15.20;1.00
5150;DHT22;2593;52.466;13.436;2022-09-21T16:23:50;15.20;1.00
5150;DHT22;2593;52.466;13.436;2022-09-21T16:26:29;15.10;1.00
5150;DHT22;2593;52.466;13.436;2022-09-21T16:29:20;15.10;1.00
5150;DHT22;2593;52.466;13.436;2022-09-21T16:31:48;15.10;1.00
5150;DHT22;2593;52.466;13.436;2022-09-21T16:34:31;15.00;1.00
5150;DHT22;2593;52.466;13.436;2022-09-21T16:37:16;15.00;1.00
5150;DHT22;2593;52.466;13.436;2022-09-21T16:39:53;14.90;1.00
5150;DHT22;2593;52.466;13.436;2022-09-21T16:42:20;14.90;1.00
5150;DHT22;2593;52.466;13.436;2022-09-21T16:44:47;14.90;1.00
5150;DHT22;2593;52.466;13.436;2022-09-21T16:47:15;14.90;1.00
5150;DHT22;2593;52.466;13.436;2022-09-21T16:49:42;14.90;1.00
5150;DHT22;2593;52.466;13.436;2022-09-21T16:52:08;14.80;1.00
5150;DHT22;2593;52.466;13.436;2022-09-21T16:54:34;14.80;1.00
5150;DHT22;2593;52.466;13.436;2022-09-21T16:57:04;14.70;1.00
5150;DHT22;2593;52.466;13.436;2022-09-21T16:59:30;14.70;1.00
5150;DHT22;2593;52.466;13.436;2022-09-21T17:01:58;14.60;1.00
5150;DHT22;2593;52.466;13.436;2022-09-21T17:04:28;14.60;1.00
5150;DHT22;2593;52.466;13.436;2022-09-21T17:06:54;14.60;1.00
5150;DHT22;2593;52.466;13.436;2022-09-21T17:09:32;14.50;1.00
5150;DHT22;2593;52.466;13.436;2022-09-21T17:12:00;14.50;1.00
5150;DHT22;2593;52.466;13.436;2022-09-21T17:14:31;14.40;1.00
5150;DHT22;2593;52.466;13.436;2022-09-21T17:16:59;14.40;1.00
5150;DHT22;2593;52.466;13.436;2022-09-21T17:19:28;14.30;1.00
5150;DHT22;2593;52.466;13.436;2022-09-21T17:21:55;14.30;1.00
5150;DHT22;2593;52.466;13.436;2022-09-21T17:24:21;14.30;1.00
5150;DHT22;2593;52.466;13.436;2022-09-21T17:26:46;14.20;1.00
5150;DHT22;2593;52.466;13.436;2022-09-21T17:31:46;14.10;1.00
5150;DHT22;2593;52.466;13.436;2022-09-21T17:34:14;14.20;1.00
5150;DHT22;2593;52.466;13.436;2022-09-21T17:36:40;14.10;1.00
5150;DHT22;2593;52.466;13.436;2022-09-21T17:39:05;14.10;1.00
5150;DHT22;2593;52.466;13.436;2022-09-21T17:41:39;14.10;1.00
5150;DHT22;2593;52.466;13.436;2022-09-21T17:47:10;14.00;1.00
5150;DHT22;2593;52.466;13.436;2022-09-21T17:49:37;14.00;1.00
5150;DHT22;2593;52.466;13.436;2022-09-21T17:52:04;14.00;1.00
5150;DHT22;2593;52.466;13.436;2022-09-21T17:54:52;13.90;1.00
5150;DHT22;2593;52.466;13.436;2022-09-21T18:00:19;13.80;1.00
5150;DHT22;2593;52.466;13.436;2022-09-21T18:02:45;13.70;1.00
5150;DHT22;2593;52.466;13.436;2022-09-21T18:05:26;13.70;1.00
5150;DHT22;2593;52.466;13.436;2022-09-21T18:07:52;13.70;1.00
5150;DHT22;2593;52.466;13.436;2022-09-21T18:10:19;13.60;1.00
5150;DHT22;2593;52.466;13.436;2022-09-21T18:13:04;13.60;1.00
5150;DHT22;2593;52.466;13.436;2022-09-21T18:15:49;13.50;1.00
5150;DHT22;2593;52.466;13.436;2022-09-21T18:18:36;13.50;1.00
5150;DHT22;2593;52.466;13.436;2022-09-21T18:21:10;13.50;1.00
5150;DHT22;2593;52.466;13.436;2022-09-21T18:26:48;13.40;11.30
5150;DHT22;2593;52.466;13.436;2022-09-21T18:35:14;13.30;15.10
5150;DHT22;2593;52.466;13.436;2022-09-21T18:43:26;13.10;27.20
5150;DHT22;2593;52.466;13.436;2022-09-21T18:46:12;13.10;36.90
5150;DHT22;2593;52.466;13.436;2022-09-21T18:48:57;13.10;47.40
5150;DHT22;2593;52.466;13.436;2022-09-21T18:51:55;13.10;49.80
5150;DHT22;2593;52.466;13.436;2022-09-21T18:54:24;13.00;43.30
5150;DHT22;2593;52.466;13.436;2022-09-21T18:56:52;13.00;35.00
5150;DHT22;2593;52.466;13.436;2022-09-21T18:59:18;13.00;41.80
5150;DHT22;2593;52.466;13.436;2022-09-21T19:01:45;13.00;46.60
5150;DHT22;2593;52.466;13.436;2022-09-21T19:04:13;13.00;56.00
5150;DHT22;2593;52.466;13.436;2022-09-21T19:06:54;12.90;60.70
5150;DHT22;2593;52.466;13.436;2022-09-21T19:09:35;12.90;75.00
5150;DHT22;2593;52.466;13.436;2022-09-21T19:12:16;12.90;62.70
5150;DHT22;2593;52.466;13.436;2022-09-21T19:20:40;12.90;46.50
5150;DHT22;2593;52.466;13.436;2022-09-21T19:23:27;12.90;18.90
5150;DHT22;2593;52.466;13.436;2022-09-21T19:26:00;13.00;1.00
5150;DHT22;2593;52.466;13.436;2022-09-21T19:31:27;13.20;1.00
5150;DHT22;2593;52.466;13.436;2022-09-21T19:33:53;13.10;1.00
5150;DHT22;2593;52.466;13.436;2022-09-21T19:36:19;13.10;1.00
5150;DHT22;2593;52.466;13.436;2022-09-21T19:38:45;13.20;1.00
5150;DHT22;2593;52.466;13.436;2022-09-21T19:41:41;13.10;1.00
5150;DHT22;2593;52.466;13.436;2022-09-21T19:47:19;13.00;1.00
5150;DHT22;2593;52.466;13.436;2022-09-21T19:49:49;13.00;1.00
5150;DHT22;2593;52.466;13.436;2022-09-21T19:52:27;12.90;1.00
5150;DHT22;2593;52.466;13.436;2022-09-21T19:54:53;13.00;1.00
5150;DHT22;2593;52.466;13.436;2022-09-21T19:57:38;13.00;1.00
5150;DHT22;2593;52.466;13.436;2022-09-21T20:00:22;12.90;1.00
5150;DHT22;2593;52.466;13.436;2022-09-21T20:05:48;12.70;4.10
5150;DHT22;2593;52.466;13.436;2022-09-21T20:08:41;12.70;9.60
5150;DHT22;2593;52.466;13.436;2022-09-21T20:16:45;12.50;31.60
5150;DHT22;2593;52.466;13.436;2022-09-21T20:19:16;12.50;41.30